sensor_id;sensor_type;location;lat;lon;timestamp;pressure;altitude;pressure_sealevel;temperature
77789;BMP280;70537;44.384;0.512;2023-07-13T00:00:25;101794.34;;;20.25
77789;BMP280;70537;44.384;0.512;2023-07-13T00:02:50;101797.72;;;20.17
77789;BMP280;70537;44.384;0.512;2023-07-13T00:05:22;101790.91;;;20.18
77789;BMP280;70537;44.384;0.512;2023-07-13T00:07:49;101791.13;;;20.20
77789;BMP280;70537;44.384;0.512;2023-07-13T00:10:15;101790.47;;;20.14
77789;BMP280;70537;44.384;0.512;2023-07-13T00:12:41;101784.44;;;20.16
77789;BMP280;70537;44.384;0.512;2023-07-13T00:15:19;101781.19;;;20.17
77789;BMP280;70537;44.384;0.512;2023-07-13T00:17:57;101790.69;;;20.16
77789;BMP280;70537;44.384;0.512;2023-07-13T00:20:24;101794.22;;;20.17
77789;BMP280;70537;44.384;0.512;2023-07-13T00:22:53;101793.66;;;20.18
77789;BMP280;70537;44.384;0.512;2023-07-13T00:25:20;101788.03;;;20.11
77789;BMP280;70537;44.384;0.512;2023-07-13T00:27:47;101790.28;;;20.12
77789;BMP280;70537;44.384;0.512;2023-07-13T00:30:16;101783.91;;;20.04
77789;BMP280;70537;44.384;0.512;2023-07-13T00:32:42;101777.19;;;20.00
77789;BMP280;70537;44.384;0.512;2023-07-13T00:35:08;101786.47;;;19.97
77789;BMP280;70537;44.384;0.512;2023-07-13T00:37:34;101782.34;;;19.90
77789;BMP280;70537;44.384;0.512;2023-07-13T00:40:04;101797.16;;;19.87
77789;BMP280;70537;44.384;0.512;2023-07-13T00:42:30;101799.16;;;19.86
77789;BMP280;70537;44.384;0.512;2023-07-13T00:46:02;101795.16;;;19.87
77789;BMP280;70537;44.384;0.512;2023-07-13T00:47:51;101791.50;;;19.79
77789;BMP280;70537;44.384;0.512;2023-07-13T00:50:18;101799.22;;;19.81
77789;BMP280;70537;44.384;0.512;2023-07-13T00:52:45;101799.22;;;19.81
77789;BMP280;70537;44.384;0.512;2023-07-13T00:55:12;101791.34;;;19.72
77789;BMP280;70537;44.384;0.512;2023-07-13T00:57:38;101802.41;;;19.66
77789;BMP280;70537;44.384;0.512;2023-07-13T01:00:05;101805.00;;;19.64
77789;BMP280;70537;44.384;0.512;2023-07-13T01:02:35;101813.59;;;19.55
77789;BMP280;70537;44.384;0.512;2023-07-13T01:05:12;101806.16;;;19.50
77789;BMP280;70537;44.384;0.512;2023-07-13T01:07:40;101799.47;;;19.45
77789;BMP280;70537;44.384;0.512;2023-07-13T01:10:31;101799.47;;;19.45
77789;BMP280;70537;44.384;0.512;2023-07-13T01:13:07;101808.28;;;19.38
77789;BMP280;70537;44.384;0.512;2023-07-13T01:15:37;101811.03;;;19.38
77789;BMP280;70537;44.384;0.512;2023-07-13T01:18:05;101813.31;;;19.34
77789;BMP280;70537;44.384;0.512;2023-07-13T01:20:31;101805.31;;;19.36
77789;BMP280;70537;44.384;0.512;2023-07-13T01:23:04;101801.81;;;19.35
77789;BMP280;70537;44.384;0.512;2023-07-13T01:25:31;101804.56;;;19.35
77789;BMP280;70537;44.384;0.512;2023-07-13T01:27:57;101799.78;;;19.36
77789;BMP280;70537;44.384;0.512;2023-07-13T01:30:22;101788.41;;;19.26
77789;BMP280;70537;44.384;0.512;2023-07-13T01:32:48;101809.91;;;19.28
77789;BMP280;70537;44.384;0.512;2023-07-13T01:35:13;101812.16;;;19.29
77789;BMP280;70537;44.384;0.512;2023-07-13T01:37:39;101816.19;;;19.28
77789;BMP280;70537;44.384;0.512;2023-07-13T01:40:05;101807.91;;;19.28
77789;BMP280;70537;44.384;0.512;2023-07-13T01:42:30;101805.59;;;19.32
77789;BMP280;70537;44.384;0.512;2023-07-13T01:44:56;101797.13;;;19.30
77789;BMP280;70537;44.384;0.512;2023-07-13T01:47:23;101811.88;;;19.33
77789;BMP280;70537;44.384;0.512;2023-07-13T01:49:48;101804.91;;;19.26
77789;BMP280;70537;44.384;0.512;2023-07-13T01:52:16;101802.22;;;19.20
77789;BMP280;70537;44.384;0.512;2023-07-13T01:54:41;101801.31;;;19.12
77789;BMP280;70537;44.384;0.512;2023-07-13T01:57:06;101796.84;;;19.09
77789;BMP280;70537;44.384;0.512;2023-07-13T01:59:32;101803.88;;;19.05
77789;BMP280;70537;44.384;0.512;2023-07-13T02:01:58;101808.72;;;18.99
77789;BMP280;70537;44.384;0.512;2023-07-13T02:04:24;101803.25;;;18.93
77789;BMP280;70537;44.384;0.512;2023-07-13T02:06:49;101809.78;;;18.90
77789;BMP280;70537;44.384;0.512;2023-07-13T02:09:15;101801.38;;;18.82
77789;BMP280;70537;44.384;0.512;2023-07-13T02:11:40;101797.41;;;18.78
77789;BMP280;70537;44.384;0.512;2023-07-13T02:14:06;101806.91;;;18.77
77789;BMP280;70537;44.384;0.512;2023-07-13T02:16:31;101803.69;;;18.73
77789;BMP280;70537;44.384;0.512;2023-07-13T02:18:57;101806.25;;;18.65
77789;BMP280;70537;44.384;0.512;2023-07-13T02:21:23;101802.56;;;18.57
77789;BMP280;70537;44.384;0.512;2023-07-13T02:23:49;101807.84;;;18.55
77789;BMP280;70537;44.384;0.512;2023-07-13T02:26:14;101813.84;;;18.53
77789;BMP280;70537;44.384;0.512;2023-07-13T02:28:40;101809.13;;;18.48
77789;BMP280;70537;44.384;0.512;2023-07-13T02:31:07;101810.84;;;18.51
77789;BMP280;70537;44.384;0.512;2023-07-13T02:33:33;101793.38;;;18.49
77789;BMP280;70537;44.384;0.512;2023-07-13T02:35:58;101812.84;;;18.51
77789;BMP280;70537;44.384;0.512;2023-07-13T02:38:24;101808.44;;;18.42
77789;BMP280;70537;44.384;0.512;2023-07-13T02:40:49;101807.88;;;18.49
77789;BMP280;70537;44.384;0.512;2023-07-13T02:43:15;101811.13;;;18.47
77789;BMP280;70537;44.384;0.512;2023-07-13T02:45:44;101808.44;;;18.42
77789;BMP280;70537;44.384;0.512;2023-07-13T02:48:10;101810.97;;;18.34
77789;BMP280;70537;44.384;0.512;2023-07-13T02:50:35;101816.75;;;18.31
77789;BMP280;70537;44.384;0.512;2023-07-13T02:53:01;101812.53;;;18.24
77789;BMP280;70537;44.384;0.512;2023-07-13T02:55:26;101821.81;;;18.21
77789;BMP280;70537;44.384;0.512;2023-07-13T02:57:52;101822.56;;;18.21
77789;BMP280;70537;44.384;0.512;2023-07-13T03:00:19;101823.53;;;18.24
77789;BMP280;70537;44.384;0.512;2023-07-13T03:02:45;101816.78;;;18.25
77789;BMP280;70537;44.384;0.512;2023-07-13T03:05:11;101829.47;;;18.34
77789;BMP280;70537;44.384;0.512;2023-07-13T03:07:38;101821.19;;;18.39
77789;BMP280;70537;44.384;0.512;2023-07-13T03:10:05;101822.63;;;18.46
77789;BMP280;70537;44.384;0.512;2023-07-13T03:12:32;101836.34;;;18.52
77789;BMP280;70537;44.384;0.512;2023-07-13T03:14:57;101824.34;;;18.55
77789;BMP280;70537;44.384;0.512;2023-07-13T03:17:23;101830.06;;;18.57
77789;BMP280;70537;44.384;0.512;2023-07-13T03:19:49;101819.34;;;18.53
77789;BMP280;70537;44.384;0.512;2023-07-13T03:22:17;101830.31;;;18.59
77789;BMP280;70537;44.384;0.512;2023-07-13T03:24:43;101843.03;;;18.62
77789;BMP280;70537;44.384;0.512;2023-07-13T03:27:09;101842.53;;;18.63
77789;BMP280;70537;44.384;0.512;2023-07-13T03:29:34;101839.03;;;18.63
77789;BMP280;70537;44.384;0.512;2023-07-13T03:32:00;101839.25;;;18.65
77789;BMP280;70537;44.384;0.512;2023-07-13T03:34:26;101840.25;;;18.62
77789;BMP280;70537;44.384;0.512;2023-07-13T03:36:54;101840.72;;;18.66
77789;BMP280;70537;44.384;0.512;2023-07-13T03:39:20;101831.28;;;18.61
77789;BMP280;70537;44.384;0.512;2023-07-13T03:41:46;101838.00;;;18.60
77789;BMP280;70537;44.384;0.512;2023-07-13T03:44:11;101843.03;;;18.62
77789;BMP280;70537;44.384;0.512;2023-07-13T03:46:37;101849.56;;;18.59
77789;BMP280;70537;44.384;0.512;2023-07-13T03:49:04;101855.00;;;18.64
77789;BMP280;70537;44.384;0.512;2023-07-13T03:51:30;101857.50;;;18.62
77789;BMP280;70537;44.384;0.512;2023-07-13T03:53:55;101847.56;;;18.59
77789;BMP280;70537;44.384;0.512;2023-07-13T03:56:21;101855.75;;;18.65
77789;BMP280;70537;44.384;0.512;2023-07-13T03:58:48;101863.72;;;18.68
77789;BMP280;70537;44.384;0.512;2023-07-13T04:01:16;101860.97;;;18.68
77789;BMP280;70537;44.384;0.512;2023-07-13T04:03:42;101862.47;;;18.69
77789;BMP280;70537;44.384;0.512;2023-07-13T04:06:12;101856.69;;;18.73
77789;BMP280;70537;44.384;0.512;2023-07-13T04:08:40;101855.47;;;18.68
77789;BMP280;70537;44.384;0.512;2023-07-13T04:11:06;101866.19;;;18.72
77789;BMP280;70537;44.384;0.512;2023-07-13T04:13:32;101851.00;;;18.65
77789;BMP280;70537;44.384;0.512;2023-07-13T04:15:57;101849.00;;;18.60
77789;BMP280;70537;44.384;0.512;2023-07-13T04:18:23;101858.56;;;18.59
77789;BMP280;70537;44.384;0.512;2023-07-13T04:20:49;101856.78;;;18.62
77789;BMP280;70537;44.384;0.512;2023-07-13T04:23:16;101850.56;;;18.56
77789;BMP280;70537;44.384;0.512;2023-07-13T04:25:49;101869.28;;;18.63
77789;BMP280;70537;44.384;0.512;2023-07-13T04:28:18;101879.03;;;18.58
77789;BMP280;70537;44.384;0.512;2023-07-13T04:30:43;101876.28;;;18.58
77789;BMP280;70537;44.384;0.512;2023-07-13T04:33:09;101876.81;;;18.57
77789;BMP280;70537;44.384;0.512;2023-07-13T04:35:35;101876.59;;;18.55
77789;BMP280;70537;44.384;0.512;2023-07-13T04:38:01;101887.28;;;18.58
77789;BMP280;70537;44.384;0.512;2023-07-13T04:40:27;101893.56;;;18.59
77789;BMP280;70537;44.384;0.512;2023-07-13T04:42:53;101896.25;;;18.64
77789;BMP280;70537;44.384;0.512;2023-07-13T04:45:18;101885.53;;;18.61
77789;BMP280;70537;44.384;0.512;2023-07-13T04:47:44;101896.06;;;18.57
77789;BMP280;70537;44.384;0.512;2023-07-13T04:50:13;101895.53;;;18.58
77789;BMP280;70537;44.384;0.512;2023-07-13T04:52:41;101876.63;;;18.49
77789;BMP280;70537;44.384;0.512;2023-07-13T04:55:07;101889.78;;;18.56
77789;BMP280;70537;44.384;0.512;2023-07-13T04:57:33;101888.34;;;18.55
77789;BMP280;70537;44.384;0.512;2023-07-13T04:59:59;101891.09;;;18.50
77789;BMP280;70537;44.384;0.512;2023-07-13T05:02:27;101891.44;;;18.35
77789;BMP280;70537;44.384;0.512;2023-07-13T05:04:53;101887.00;;;18.26
77789;BMP280;70537;44.384;0.512;2023-07-13T05:07:18;101903.97;;;18.30
77789;BMP280;70537;44.384;0.512;2023-07-13T05:09:44;101896.19;;;18.29
77789;BMP280;70537;44.384;0.512;2023-07-13T05:12:10;101896.03;;;18.21
77789;BMP280;70537;44.384;0.512;2023-07-13T05:14:35;101900.28;;;18.16
77789;BMP280;70537;44.384;0.512;2023-07-13T05:17:01;101889.53;;;18.13
77789;BMP280;70537;44.384;0.512;2023-07-13T05:19:27;101888.06;;;18.12
77789;BMP280;70537;44.384;0.512;2023-07-13T05:21:52;101899.09;;;18.06
77789;BMP280;70537;44.384;0.512;2023-07-13T05:24:18;101912.53;;;18.10
77789;BMP280;70537;44.384;0.512;2023-07-13T05:26:44;101911.56;;;18.07
77789;BMP280;70537;44.384;0.512;2023-07-13T05:29:11;101906.28;;;18.09
77789;BMP280;70537;44.384;0.512;2023-07-13T05:31:36;101917.53;;;18.06
77789;BMP280;70537;44.384;0.512;2023-07-13T05:34:02;101908.06;;;18.07
77789;BMP280;70537;44.384;0.512;2023-07-13T05:36:27;101923.78;;;18.12
77789;BMP280;70537;44.384;0.512;2023-07-13T05:38:53;101911.03;;;18.14
77789;BMP280;70537;44.384;0.512;2023-07-13T05:41:19;101915.28;;;18.15
77789;BMP280;70537;44.384;0.512;2023-07-13T05:43:44;101924.25;;;18.16
77789;BMP280;70537;44.384;0.512;2023-07-13T05:46:10;101924.00;;;18.19
77789;BMP280;70537;44.384;0.512;2023-07-13T05:48:35;101928.75;;;18.19
77789;BMP280;70537;44.384;0.512;2023-07-13T05:51:01;101931.69;;;18.27
77789;BMP280;70537;44.384;0.512;2023-07-13T05:53:27;101946.19;;;18.27
77789;BMP280;70537;44.384;0.512;2023-07-13T05:55:54;101949.16;;;18.35
77789;BMP280;70537;44.384;0.512;2023-07-13T05:58:20;101951.16;;;18.40
77789;BMP280;70537;44.384;0.512;2023-07-13T06:00:47;101945.38;;;18.43
77789;BMP280;70537;44.384;0.512;2023-07-13T06:03:12;101944.41;;;18.41
77789;BMP280;70537;44.384;0.512;2023-07-13T06:05:38;101948.63;;;18.42
77789;BMP280;70537;44.384;0.512;2023-07-13T06:08:05;101950.09;;;18.49
77789;BMP280;70537;44.384;0.512;2023-07-13T06:10:35;101961.53;;;18.64
77789;BMP280;70537;44.384;0.512;2023-07-13T06:13:01;101960.50;;;18.67
77789;BMP280;70537;44.384;0.512;2023-07-13T06:15:27;101958.69;;;18.75
77789;BMP280;70537;44.384;0.512;2023-07-13T06:17:52;101948.38;;;18.87
77789;BMP280;70537;44.384;0.512;2023-07-13T06:20:18;101962.69;;;18.80
77789;BMP280;70537;44.384;0.512;2023-07-13T06:22:43;101952.69;;;18.77
77789;BMP280;70537;44.384;0.512;2023-07-13T06:25:09;101953.41;;;18.83
77789;BMP280;70537;44.384;0.512;2023-07-13T06:27:34;101958.38;;;18.84
77789;BMP280;70537;44.384;0.512;2023-07-13T06:30:00;101961.06;;;18.95
77789;BMP280;70537;44.384;0.512;2023-07-13T06:32:26;101956.47;;;19.09
77789;BMP280;70537;44.384;0.512;2023-07-13T06:34:51;101962.72;;;19.10
77789;BMP280;70537;44.384;0.512;2023-07-13T06:37:17;101959.50;;;19.06
77789;BMP280;70537;44.384;0.512;2023-07-13T06:39:43;101965.47;;;19.10
77789;BMP280;70537;44.384;0.512;2023-07-13T06:42:09;101964.63;;;19.20
77789;BMP280;70537;44.384;0.512;2023-07-13T06:44:34;101960.09;;;19.23
77789;BMP280;70537;44.384;0.512;2023-07-13T06:47:00;101962.25;;;19.36
77789;BMP280;70537;44.384;0.512;2023-07-13T06:49:28;101979.13;;;19.51
77789;BMP280;70537;44.384;0.512;2023-07-13T06:51:54;101979.06;;;19.57
77789;BMP280;70537;44.384;0.512;2023-07-13T06:54:19;101993.53;;;19.63
77789;BMP280;70537;44.384;0.512;2023-07-13T06:56:45;101972.88;;;19.51
77789;BMP280;70537;44.384;0.512;2023-07-13T06:59:10;101988.28;;;19.65
77789;BMP280;70537;44.384;0.512;2023-07-13T07:01:36;101986.47;;;19.67
77789;BMP280;70537;44.384;0.512;2023-07-13T07:04:01;101989.06;;;19.84
77789;BMP280;70537;44.384;0.512;2023-07-13T07:06:28;101987.47;;;19.94
77789;BMP280;70537;44.384;0.512;2023-07-13T07:08:53;101987.41;;;20.00
77789;BMP280;70537;44.384;0.512;2023-07-13T07:11:24;101993.91;;;20.22
77789;BMP280;70537;44.384;0.512;2023-07-13T07:13:51;101995.81;;;20.27
77789;BMP280;70537;44.384;0.512;2023-07-13T07:16:17;102000.72;;;20.39
77789;BMP280;70537;44.384;0.512;2023-07-13T07:18:43;102000.78;;;20.53
77789;BMP280;70537;44.384;0.512;2023-07-13T07:21:09;102008.47;;;20.60
77789;BMP280;70537;44.384;0.512;2023-07-13T07:23:35;102006.97;;;20.59
77789;BMP280;70537;44.384;0.512;2023-07-13T07:26:00;102015.09;;;20.51
77789;BMP280;70537;44.384;0.512;2023-07-13T07:28:26;102012.63;;;20.48
77789;BMP280;70537;44.384;0.512;2023-07-13T07:30:55;102008.16;;;20.44
77789;BMP280;70537;44.384;0.512;2023-07-13T07:33:21;101997.28;;;20.52
77789;BMP280;70537;44.384;0.512;2023-07-13T07:35:47;101999.66;;;20.61
77789;BMP280;70537;44.384;0.512;2023-07-13T07:38:13;102006.03;;;20.88
77789;BMP280;70537;44.384;0.512;2023-07-13T07:40:39;101998.50;;;20.89
77789;BMP280;70537;44.384;0.512;2023-07-13T07:43:06;102006.34;;;20.85
77789;BMP280;70537;44.384;0.512;2023-07-13T07:45:32;101999.72;;;21.07
77789;BMP280;70537;44.384;0.512;2023-07-13T07:47:58;101994.06;;;20.99
77789;BMP280;70537;44.384;0.512;2023-07-13T07:50:28;102002.53;;;21.20
77789;BMP280;70537;44.384;0.512;2023-07-13T07:52:54;101993.41;;;21.25
77789;BMP280;70537;44.384;0.512;2023-07-13T07:55:21;102000.31;;;21.32
77789;BMP280;70537;44.384;0.512;2023-07-13T07:57:47;101994.78;;;21.45
77789;BMP280;70537;44.384;0.512;2023-07-13T08:00:13;101998.09;;;21.57
77789;BMP280;70537;44.384;0.512;2023-07-13T08:02:38;102003.00;;;21.77
77789;BMP280;70537;44.384;0.512;2023-07-13T08:05:07;101991.59;;;22.07
77789;BMP280;70537;44.384;0.512;2023-07-13T08:07:32;101985.16;;;21.91
77789;BMP280;70537;44.384;0.512;2023-07-13T08:09:58;101988.56;;;21.84
77789;BMP280;70537;44.384;0.512;2023-07-13T08:12:23;102000.56;;;22.00
77789;BMP280;70537;44.384;0.512;2023-07-13T08:14:52;101996.50;;;22.01
77789;BMP280;70537;44.384;0.512;2023-07-13T08:17:19;101996.53;;;22.35
77789;BMP280;70537;44.384;0.512;2023-07-13T08:19:45;101994.94;;;22.61
77789;BMP280;70537;44.384;0.512;2023-07-13T08:22:11;101995.69;;;22.61
77789;BMP280;70537;44.384;0.512;2023-07-13T08:24:36;101989.00;;;22.57
77789;BMP280;70537;44.384;0.512;2023-07-13T08:27:02;101999.94;;;22.62
77789;BMP280;70537;44.384;0.512;2023-07-13T08:29:28;101996.41;;;22.41
77789;BMP280;70537;44.384;0.512;2023-07-13T08:31:53;101989.38;;;22.74
77789;BMP280;70537;44.384;0.512;2023-07-13T08:34:19;101988.75;;;22.89
77789;BMP280;70537;44.384;0.512;2023-07-13T08:36:45;101990.53;;;23.07
77789;BMP280;70537;44.384;0.512;2023-07-13T08:39:10;101998.59;;;23.18
77789;BMP280;70537;44.384;0.512;2023-07-13T08:41:36;102000.47;;;23.60
77789;BMP280;70537;44.384;0.512;2023-07-13T08:44:03;102002.78;;;23.40
77789;BMP280;70537;44.384;0.512;2023-07-13T08:46:38;102003.34;;;23.39
77789;BMP280;70537;44.384;0.512;2023-07-13T08:49:11;101998.50;;;23.32
77789;BMP280;70537;44.384;0.512;2023-07-13T08:51:42;101991.41;;;23.23
77789;BMP280;70537;44.384;0.512;2023-07-13T08:54:39;101993.88;;;23.63
77789;BMP280;70537;44.384;0.512;2023-07-13T08:57:19;101987.41;;;23.60
77789;BMP280;70537;44.384;0.512;2023-07-13T08:59:46;101996.91;;;23.44
77789;BMP280;70537;44.384;0.512;2023-07-13T09:05:13;101986.81;;;23.54
77789;BMP280;70537;44.384;0.512;2023-07-13T09:08:10;101989.09;;;23.71
77789;BMP280;70537;44.384;0.512;2023-07-13T09:10:49;101993.50;;;23.66
77789;BMP280;70537;44.384;0.512;2023-07-13T09:15:46;101999.63;;;24.09
77789;BMP280;70537;44.384;0.512;2023-07-13T09:18:23;101989.97;;;23.66
77789;BMP280;70537;44.384;0.512;2023-07-13T09:20:55;101990.28;;;23.91
77789;BMP280;70537;44.384;0.512;2023-07-13T09:23:24;101989.13;;;24.38
77789;BMP280;70537;44.384;0.512;2023-07-13T09:25:54;101988.22;;;24.73
77789;BMP280;70537;44.384;0.512;2023-07-13T09:28:26;101988.03;;;24.56
77789;BMP280;70537;44.384;0.512;2023-07-13T09:31:09;101992.41;;;25.28
77789;BMP280;70537;44.384;0.512;2023-07-13T09:33:37;101987.13;;;24.84
77789;BMP280;70537;44.384;0.512;2023-07-13T09:38:43;102001.91;;;25.10
77789;BMP280;70537;44.384;0.512;2023-07-13T09:41:35;101998.72;;;25.13
77789;BMP280;70537;44.384;0.512;2023-07-13T09:44:17;101993.97;;;24.91
77789;BMP280;70537;44.384;0.512;2023-07-13T09:46:54;102002.09;;;25.04
77789;BMP280;70537;44.384;0.512;2023-07-13T09:49:25;102005.75;;;25.29
77789;BMP280;70537;44.384;0.512;2023-07-13T09:51:58;101991.53;;;25.10
77789;BMP280;70537;44.384;0.512;2023-07-13T09:54:25;101989.13;;;25.14
77789;BMP280;70537;44.384;0.512;2023-07-13T09:56:55;101997.09;;;25.18
77789;BMP280;70537;44.384;0.512;2023-07-13T09:59:23;101993.94;;;25.14
77789;BMP280;70537;44.384;0.512;2023-07-13T10:01:49;101989.00;;;25.60
77789;BMP280;70537;44.384;0.512;2023-07-13T10:04:18;101987.53;;;25.92
77789;BMP280;70537;44.384;0.512;2023-07-13T10:06:45;101990.31;;;25.92
77789;BMP280;70537;44.384;0.512;2023-07-13T10:09:15;101999.16;;;25.02
77789;BMP280;70537;44.384;0.512;2023-07-13T10:11:41;101996.91;;;24.85
77789;BMP280;70537;44.384;0.512;2023-07-13T10:14:16;101994.09;;;25.23
77789;BMP280;70537;44.384;0.512;2023-07-13T10:16:43;101992.94;;;25.49
77789;BMP280;70537;44.384;0.512;2023-07-13T10:19:11;101996.19;;;25.63
77789;BMP280;70537;44.384;0.512;2023-07-13T10:22:14;102001.69;;;25.78
77789;BMP280;70537;44.384;0.512;2023-07-13T10:24:42;101995.69;;;25.57
77789;BMP280;70537;44.384;0.512;2023-07-13T10:27:25;101988.75;;;25.73
77789;BMP280;70537;44.384;0.512;2023-07-13T10:30:02;101997.63;;;25.79
77789;BMP280;70537;44.384;0.512;2023-07-13T10:32:33;101989.22;;;25.87
77789;BMP280;70537;44.384;0.512;2023-07-13T10:34:59;101999.72;;;26.04
77789;BMP280;70537;44.384;0.512;2023-07-13T10:37:31;101987.97;;;26.13
77789;BMP280;70537;44.384;0.512;2023-07-13T10:40:03;102001.63;;;25.94
77789;BMP280;70537;44.384;0.512;2023-07-13T10:42:35;101986.56;;;26.29
77789;BMP280;70537;44.384;0.512;2023-07-13T10:45:08;101980.53;;;26.41
77789;BMP280;70537;44.384;0.512;2023-07-13T10:47:37;101988.94;;;26.75
77789;BMP280;70537;44.384;0.512;2023-07-13T10:50:05;101981.16;;;26.56
77789;BMP280;70537;44.384;0.512;2023-07-13T10:53:02;101993.56;;;26.80
77789;BMP280;70537;44.384;0.512;2023-07-13T10:55:56;101992.53;;;26.93
77789;BMP280;70537;44.384;0.512;2023-07-13T10:58:42;101998.50;;;26.47
77789;BMP280;70537;44.384;0.512;2023-07-13T11:01:13;101999.31;;;26.40
77789;BMP280;70537;44.384;0.512;2023-07-13T11:06:12;101992.19;;;26.47
77789;BMP280;70537;44.384;0.512;2023-07-13T11:08:55;101989.56;;;26.91
77789;BMP280;70537;44.384;0.512;2023-07-13T11:19:23;101976.69;;;26.96
77789;BMP280;70537;44.384;0.512;2023-07-13T11:21:33;101972.69;;;26.89
77789;BMP280;70537;44.384;0.512;2023-07-13T11:24:04;101970.28;;;27.37
77789;BMP280;70537;44.384;0.512;2023-07-13T11:26:38;101977.97;;;27.46
77789;BMP280;70537;44.384;0.512;2023-07-13T11:29:33;101969.50;;;27.81
77789;BMP280;70537;44.384;0.512;2023-07-13T11:32:21;101966.66;;;27.71
77789;BMP280;70537;44.384;0.512;2023-07-13T11:34:47;101969.66;;;28.20
77789;BMP280;70537;44.384;0.512;2023-07-13T11:37:16;101969.59;;;27.73
77789;BMP280;70537;44.384;0.512;2023-07-13T11:39:44;101965.41;;;28.19
77789;BMP280;70537;44.384;0.512;2023-07-13T11:42:13;101966.41;;;28.14
77789;BMP280;70537;44.384;0.512;2023-07-13T11:44:46;101957.22;;;27.94
77789;BMP280;70537;44.384;0.512;2023-07-13T11:47:21;101953.09;;;27.85
77789;BMP280;70537;44.384;0.512;2023-07-13T11:49:53;101957.59;;;28.17
77789;BMP280;70537;44.384;0.512;2023-07-13T11:52:32;101947.25;;;28.00
77789;BMP280;70537;44.384;0.512;2023-07-13T11:55:01;101956.19;;;27.62
77789;BMP280;70537;44.384;0.512;2023-07-13T11:57:38;101954.03;;;27.43
77789;BMP280;70537;44.384;0.512;2023-07-13T12:00:17;101949.34;;;28.10
77789;BMP280;70537;44.384;0.512;2023-07-13T12:02:46;101946.47;;;27.90
77789;BMP280;70537;44.384;0.512;2023-07-13T12:05:15;101942.72;;;27.95
77789;BMP280;70537;44.384;0.512;2023-07-13T12:07:44;101953.97;;;28.34
77789;BMP280;70537;44.384;0.512;2023-07-13T12:10:27;101945.06;;;28.84
77789;BMP280;70537;44.384;0.512;2023-07-13T12:13:02;101944.44;;;28.95
77789;BMP280;70537;44.384;0.512;2023-07-13T12:15:48;101942.06;;;29.11
77789;BMP280;70537;44.384;0.512;2023-07-13T12:18:18;101937.25;;;29.12
77789;BMP280;70537;44.384;0.512;2023-07-13T12:20:45;101937.84;;;28.91
77789;BMP280;70537;44.384;0.512;2023-07-13T12:23:22;101932.84;;;28.99
77789;BMP280;70537;44.384;0.512;2023-07-13T12:25:49;101931.28;;;29.36
77789;BMP280;70537;44.384;0.512;2023-07-13T12:28:39;101945.00;;;29.32
77789;BMP280;70537;44.384;0.512;2023-07-13T12:31:31;101940.72;;;29.41
77789;BMP280;70537;44.384;0.512;2023-07-13T12:34:09;101930.31;;;29.03
77789;BMP280;70537;44.384;0.512;2023-07-13T12:36:45;101932.25;;;29.51
77789;BMP280;70537;44.384;0.512;2023-07-13T12:39:24;101929.72;;;29.64
77789;BMP280;70537;44.384;0.512;2023-07-13T12:41:52;101923.34;;;30.26
77789;BMP280;70537;44.384;0.512;2023-07-13T12:44:27;101924.47;;;29.80
77789;BMP280;70537;44.384;0.512;2023-07-13T12:47:02;101924.66;;;30.25
77789;BMP280;70537;44.384;0.512;2023-07-13T12:49:30;101921.59;;;30.42
77789;BMP280;70537;44.384;0.512;2023-07-13T12:52:00;101912.09;;;30.69
77789;BMP280;70537;44.384;0.512;2023-07-13T12:54:27;101911.25;;;30.90
77789;BMP280;70537;44.384;0.512;2023-07-13T12:56:53;101907.28;;;30.60
77789;BMP280;70537;44.384;0.512;2023-07-13T12:59:21;101911.16;;;30.55
77789;BMP280;70537;44.384;0.512;2023-07-13T13:01:48;101889.91;;;30.40
77789;BMP280;70537;44.384;0.512;2023-07-13T13:04:22;101898.75;;;30.58
77789;BMP280;70537;44.384;0.512;2023-07-13T13:06:49;101893.03;;;30.13
77789;BMP280;70537;44.384;0.512;2023-07-13T13:09:25;101887.56;;;28.62
77789;BMP280;70537;44.384;0.512;2023-07-13T13:11:52;101885.63;;;28.74
77789;BMP280;70537;44.384;0.512;2023-07-13T13:14:18;101894.59;;;28.63
77789;BMP280;70537;44.384;0.512;2023-07-13T13:16:49;101895.56;;;29.56
77789;BMP280;70537;44.384;0.512;2023-07-13T13:19:26;101894.97;;;29.89
77789;BMP280;70537;44.384;0.512;2023-07-13T13:21:54;101892.34;;;30.78
77789;BMP280;70537;44.384;0.512;2023-07-13T13:24:24;101888.47;;;30.84
77789;BMP280;70537;44.384;0.512;2023-07-13T13:26:51;101886.06;;;31.48
77789;BMP280;70537;44.384;0.512;2023-07-13T13:29:24;101883.38;;;31.03
77789;BMP280;70537;44.384;0.512;2023-07-13T13:31:51;101884.69;;;30.91
77789;BMP280;70537;44.384;0.512;2023-07-13T13:34:20;101889.28;;;30.74
77789;BMP280;70537;44.384;0.512;2023-07-13T13:36:49;101881.16;;;30.90
77789;BMP280;70537;44.384;0.512;2023-07-13T13:39:28;101876.44;;;29.84
77789;BMP280;70537;44.384;0.512;2023-07-13T13:41:55;101878.44;;;29.93
77789;BMP280;70537;44.384;0.512;2023-07-13T13:44:21;101882.69;;;30.70
77789;BMP280;70537;44.384;0.512;2023-07-13T13:46:52;101880.03;;;30.72
77789;BMP280;70537;44.384;0.512;2023-07-13T13:49:21;101871.00;;;30.73
77789;BMP280;70537;44.384;0.512;2023-07-13T13:51:48;101870.16;;;30.71
77789;BMP280;70537;44.384;0.512;2023-07-13T13:54:15;101876.19;;;31.00
77789;BMP280;70537;44.384;0.512;2023-07-13T13:56:44;101878.69;;;30.73
77789;BMP280;70537;44.384;0.512;2023-07-13T13:59:11;101869.00;;;30.64
77789;BMP280;70537;44.384;0.512;2023-07-13T14:01:36;101865.00;;;30.23
77789;BMP280;70537;44.384;0.512;2023-07-13T14:04:03;101870.84;;;30.60
77789;BMP280;70537;44.384;0.512;2023-07-13T14:06:30;101859.53;;;30.81
77789;BMP280;70537;44.384;0.512;2023-07-13T14:08:56;101847.41;;;31.00
77789;BMP280;70537;44.384;0.512;2023-07-13T14:11:21;101849.78;;;30.04
77789;BMP280;70537;44.384;0.512;2023-07-13T14:13:54;101857.47;;;29.20
77789;BMP280;70537;44.384;0.512;2023-07-13T14:16:23;101854.44;;;28.87
77789;BMP280;70537;44.384;0.512;2023-07-13T14:18:53;101845.66;;;28.42
77789;BMP280;70537;44.384;0.512;2023-07-13T14:21:20;101846.09;;;28.68
77789;BMP280;70537;44.384;0.512;2023-07-13T14:23:47;101847.81;;;28.92